Time;durP1;ratioP1;P1;durP2;ratioP2;P2;SDS_P1;SDS_P2;PMS_P1;PMS_P2;Temp;Humidity;BMP_temperature;BMP_pressure;BME280_temperature;BME280_humidity;BME280_pressure;Samples;Min_cycle;Max_cycle;Signal;HPM_P1;HPM_P2
2023/05/28 00:02:04;;;;;;;16.52;6.63;;;14.90;99.90;;;;;;5094201;28;20175;-63
2023/05/28 00:04:30;;;;;;;15.38;5.95;;;15.10;99.90;;;;;;5094348;28;20632;-63
2023/05/28 00:06:55;;;;;;;12.88;6.00;;;14.90;99.90;;;;;;5093991;28;20241;-62
2023/05/28 00:09:21;;;;;;;13.70;6.10;;;15.00;99.90;;;;;;5094141;28;20259;-62
2023/05/28 00:11:47;;;;;;;12.40;5.18;;;15.00;99.90;;;;;;5094162;28;20199;-63
2023/05/28 00:14:13;;;;;;;13.27;5.55;;;15.10;99.90;;;;;;5094003;28;20168;-63
2023/05/28 00:16:40;;;;;;;13.77;5.30;;;15.10;99.90;;;;;;5094048;28;20246;-64
2023/05/28 00:19:06;;;;;;;14.30;5.47;;;15.10;99.90;;;;;;5094053;28;20201;-62
2023/05/28 00:21:33;;;;;;;14.40;5.50;;;15.00;99.90;;;;;;5093976;28;20197;-62
2023/05/28 00:23:59;;;;;;;17.80;6.45;;;15.00;99.90;;;;;;5094052;28;20215;-63
2023/05/28 00:26:28;;;;;;;12.32;5.13;;;15.00;99.90;;;;;;5093878;28;20510;-63
2023/05/28 00:28:54;;;;;;;20.70;4.50;;;15.00;99.90;;;;;;5093782;28;20184;-64
2023/05/28 00:31:20;;;;;;;14.25;5.38;;;15.00;99.90;;;;;;5093164;28;20243;-63
2023/05/28 00:33:45;;;;;;;12.75;5.45;;;15.00;99.90;;;;;;5090854;28;20274;-64
2023/05/28 00:36:15;;;;;;;11.85;4.97;;;15.00;99.90;;;;;;5093456;28;20237;-64
2023/05/28 00:38:40;;;;;;;11.13;5.13;;;15.10;99.90;;;;;;5093314;28;20179;-64
2023/05/28 00:41:06;;;;;;;16.05;6.15;;;15.20;99.90;;;;;;5093504;28;20160;-64
2023/05/28 00:43:32;;;;;;;16.83;5.38;;;;;;;;;;5092955;28;20301;-64
2023/05/28 00:46:03;;;;;;;16.08;5.15;;;15.10;99.90;;;;;;5093442;28;20255;-64
2023/05/28 00:48:29;;;;;;;13.65;4.80;;;15.10;99.90;;;;;;5093292;28;20187;-64
2023/05/28 00:50:55;;;;;;;12.05;3.70;;;15.20;99.90;;;;;;5088078;28;20176;-64
2023/05/28 00:53:22;;;;;;;8.20;4.35;;;15.20;99.90;;;;;;5093023;28;20197;-63
2023/05/28 00:55:48;;;;;;;11.25;3.90;;;15.20;99.90;;;;;;5093254;28;20182;-60
2023/05/28 00:58:15;;;;;;;8.85;4.03;;;15.20;99.90;;;;;;5079211;28;20272;-59
2023/05/28 01:00:45;;;;;;;14.32;3.88;;;15.20;99.90;;;;;;5072895;28;20192;-60
2023/05/28 01:03:11;;;;;;;10.48;3.42;;;15.20;99.90;;;;;;5072805;28;20213;-60
2023/05/28 01:05:37;;;;;;;9.23;3.63;;;15.20;99.90;;;;;;5072868;28;20169;-60
2023/05/28 01:08:06;;;;;;;8.40;3.45;;;15.30;99.90;;;;;;5072608;28;20531;-60
2023/05/28 01:10:33;;;;;;;8.35;3.40;;;15.20;99.90;;;;;;5087232;28;20250;-60
2023/05/28 01:13:01;;;;;;;11.00;3.38;;;15.20;99.90;;;;;;5092859;28;20222;-60
2023/05/28 01:15:27;;;;;;;7.13;3.42;;;15.20;99.90;;;;;;5093112;28;20581;-60
2023/05/28 01:18:00;;;;;;;9.90;3.72;;;15.10;99.90;;;;;;5092795;28;20168;-60
2023/05/28 01:20:28;;;;;;;9.75;3.53;;;15.10;99.90;;;;;;5092733;28;20721;-60
2023/05/28 01:23:00;;;;;;;15.35;4.15;;;15.10;99.90;;;;;;5092546;28;20237;-60
2023/05/28 01:25:26;;;;;;;8.40;3.65;;;15.00;99.90;;;;;;5092733;28;20668;-60
2023/05/28 01:27:54;;;;;;;8.20;3.70;;;15.00;99.90;;;;;;5092695;28;20172;-60
2023/05/28 01:30:20;;;;;;;6.38;3.08;;;15.00;99.90;;;;;;5092490;28;20164;-59
2023/05/28 01:32:46;;;;;;;7.32;3.55;;;15.00;99.90;;;;;;5092481;28;20640;-61
2023/05/28 01:35:12;;;;;;;8.15;3.60;;;15.10;99.90;;;;;;5092405;28;20172;-61
2023/05/28 01:37:45;;;;;;;7.55;3.30;;;15.00;99.90;;;;;;5092397;28;20168;-61
2023/05/28 01:40:14;;;;;;;11.43;3.20;;;15.00;99.90;;;;;;5092359;28;20168;-61
2023/05/28 01:42:40;;;;;;;8.77;2.88;;;15.00;99.90;;;;;;5092440;28;20218;-61
2023/05/28 01:45:07;;;;;;;7.60;3.03;;;15.00;99.90;;;;;;5092301;28;20172;-61
2023/05/28 01:47:34;;;;;;;8.75;3.28;;;15.00;99.90;;;;;;5072929;28;20235;-61
2023/05/28 01:50:00;;;;;;;5.85;2.95;;;15.00;99.90;;;;;;5072048;28;20246;-61
2023/05/28 01:52:25;;;;;;;6.07;2.75;;;15.00;99.90;;;;;;5085857;28;20650;-61
2023/05/28 01:54:51;;;;;;;6.43;2.60;;;15.00;99.90;;;;;;5092158;28;20172;-60
2023/05/28 01:57:16;;;;;;;6.45;2.92;;;14.90;99.90;;;;;;5092192;28;20251;-60
2023/05/28 01:59:42;;;;;;;7.63;2.88;;;15.00;99.90;;;;;;5073945;28;20171;-60
2023/05/28 02:02:08;;;;;;;4.60;2.65;;;15.00;99.90;;;;;;5091909;28;20191;-60
2023/05/28 02:04:34;;;;;;;5.53;2.60;;;14.90;99.90;;;;;;5091852;28;20236;-60
2023/05/28 02:06:59;;;;;;;6.00;2.88;;;15.00;99.90;;;;;;5091757;28;20171;-60
2023/05/28 02:09:25;;;;;;;6.07;2.65;;;15.00;99.90;;;;;;5091855;28;20171;-59
2023/05/28 02:11:51;;;;;;;5.85;2.30;;;14.90;99.90;;;;;;5091817;28;20208;-59
2023/05/28 02:14:16;;;;;;;5.10;2.50;;;14.90;99.90;;;;;;5091892;28;20168;-60
2023/05/28 02:16:47;;;;;;;4.72;2.50;;;14.90;99.90;;;;;;5091715;28;20176;-60
2023/05/28 02:19:14;;;;;;;4.78;2.42;;;14.90;99.90;;;;;;5091693;28;20182;-60
2023/05/28 02:21:39;;;;;;;4.97;2.53;;;14.90;99.90;;;;;;5091135;28;20176;-60
2023/05/28 02:24:05;;;;;;;6.30;2.40;;;14.90;99.90;;;;;;5091662;28;20261;-60
2023/05/28 02:26:31;;;;;;;4.85;2.10;;;14.90;99.90;;;;;;5073427;28;20679;-60
2023/05/28 02:28:57;;;;;;;6.75;2.35;;;14.80;99.90;;;;;;5091523;28;20175;-60
2023/05/28 02:31:22;;;;;;;3.17;2.10;;;14.80;99.90;;;;;;5091337;28;20164;-60
2023/05/28 02:33:48;;;;;;;6.03;2.78;;;;;;;;;;5091295;28;20197;-60
2023/05/28 02:36:14;;;;;;;9.00;3.05;;;14.80;99.90;;;;;;5091212;28;20175;-60
2023/05/28 02:38:40;;;;;;;4.80;2.80;;;14.70;99.90;;;;;;5091321;28;20178;-60
2023/05/28 02:41:06;;;;;;;6.55;2.90;;;14.70;99.90;;;;;;5091709;28;20221;-60
2023/05/28 02:43:32;;;;;;;5.93;2.63;;;14.80;99.90;;;;;;5091124;28;20294;-60
2023/05/28 02:45:59;;;;;;;4.13;2.55;;;;;;;;;;5090973;28;20172;-60
2023/05/28 02:48:25;;;;;;;8.02;2.70;;;14.80;99.90;;;;;;5073297;28;20180;-60
2023/05/28 02:50:50;;;;;;;5.68;2.67;;;14.70;99.90;;;;;;5091162;28;20164;-61
2023/05/28 02:53:20;;;;;;;9.68;2.50;;;14.70;99.90;;;;;;5091209;28;20179;-60
2023/05/28 02:55:46;;;;;;;7.97;2.75;;;13.40;99.90;;;;;;5091127;28;20248;-60
2023/05/28 02:58:12;;;;;;;4.00;2.38;;;14.70;99.90;;;;;;5091127;28;20676;-60
2023/05/28 03:00:38;;;;;;;4.60;2.50;;;14.70;99.90;;;;;;5086831;28;20649;-60
2023/05/28 03:03:04;;;;;;;6.97;2.95;;;;;;;;;;5088587;28;20218;-60
2023/05/28 03:05:31;;;;;;;7.60;3.15;;;14.60;99.90;;;;;;5090819;28;20179;-60
2023/05/28 03:07:57;;;;;;;4.88;2.50;;;14.60;99.90;;;;;;5090544;28;20180;-60
2023/05/28 03:10:23;;;;;;;7.95;2.80;;;14.60;99.90;;;;;;5074194;28;20233;-60
2023/05/28 03:12:49;;;;;;;8.13;3.13;;;14.50;99.90;;;;;;5090879;28;20172;-60
2023/05/28 03:15:14;;;;;;;7.90;3.20;;;14.60;99.90;;;;;;5090707;28;20251;-60
2023/05/28 03:17:40;;;;;;;6.10;2.65;;;14.50;99.90;;;;;;5078427;28;20713;-61
2023/05/28 03:20:10;;;;;;;8.07;3.42;;;14.50;99.90;;;;;;5086979;28;20207;-60
2023/05/28 03:22:39;;;;;;;10.90;3.13;;;14.50;99.90;;;;;;5073970;28;20246;-61
2023/05/28 03:25:05;;;;;;;5.55;3.00;;;14.40;99.90;;;;;;5090608;28;20203;-64
2023/05/28 03:27:32;;;;;;;9.85;2.95;;;14.40;99.90;;;;;;5089301;28;20178;-61
2023/05/28 03:29:58;;;;;;;5.75;3.00;;;14.40;99.90;;;;;;5085088;28;20176;-61
2023/05/28 03:32:24;;;;;;;7.75;3.03;;;14.30;99.90;;;;;;5090361;28;20244;-60
2023/05/28 03:34:49;;;;;;;9.25;2.92;;;14.30;99.90;;;;;;5091036;28;20637;-60
2023/05/28 03:37:15;;;;;;;9.60;3.30;;;14.00;99.90;;;;;;5074705;28;20200;-59
2023/05/28 03:39:41;;;;;;;7.55;3.00;;;14.10;99.90;;;;;;5093459;28;20581;-60
2023/05/28 03:42:07;;;;;;;5.05;2.72;;;14.10;99.90;;;;;;5094213;28;20221;-60
2023/05/28 03:44:34;;;;;;;8.98;3.38;;;14.10;99.90;;;;;;5093940;28;20551;-59
2023/05/28 03:47:00;;;;;;;9.68;3.10;;;14.10;99.90;;;;;;5093086;28;20215;-60
2023/05/28 03:49:26;;;;;;;7.40;2.80;;;14.10;99.90;;;;;;5093469;28;20582;-60
2023/05/28 03:51:51;;;;;;;8.57;2.70;;;14.10;99.90;;;;;;5094536;28;20183;-59
2023/05/28 03:54:17;;;;;;;6.97;2.78;;;14.10;99.90;;;;;;5093890;28;20219;-59
2023/05/28 03:56:43;;;;;;;5.13;2.50;;;14.00;99.90;;;;;;5094497;28;20183;-59
2023/05/28 03:59:08;;;;;;;6.82;2.85;;;13.90;99.90;;;;;;5093664;28;20183;-59
2023/05/28 04:01:35;;;;;;;9.45;2.58;;;13.90;99.90;;;;;;5061927;28;20172;-59
2023/05/28 04:04:01;;;;;;;10.10;2.80;;;13.90;99.90;;;;;;5091026;28;20276;-60
2023/05/28 04:06:27;;;;;;;4.68;2.42;;;13.90;99.90;;;;;;5094267;28;20628;-59
2023/05/28 04:08:53;;;;;;;7.03;2.80;;;;;;;;;;5093407;28;20175;-59
2023/05/28 04:11:21;;;;;;;5.55;2.63;;;13.80;99.90;;;;;;5093955;28;20172;-59
2023/05/28 04:13:47;;;;;;;7.47;2.53;;;13.70;99.90;;;;;;5093892;28;20183;-59
2023/05/28 04:16:13;;;;;;;5.03;2.83;;;13.60;99.90;;;;;;5093936;28;20176;-59
2023/05/28 04:18:39;;;;;;;5.32;2.63;;;13.50;99.90;;;;;;5094167;28;20225;-59
2023/05/28 04:21:05;;;;;;;6.68;2.60;;;13.50;99.90;;;;;;5094017;28;20698;-59
2023/05/28 04:23:31;;;;;;;6.50;2.78;;;13.40;99.90;;;;;;5092476;28;20211;-59
2023/05/28 04:25:57;;;;;;;6.90;2.55;;;13.40;99.90;;;;;;5093490;28;20538;-59
2023/05/28 04:28:27;;;;;;;7.43;3.58;;;13.30;99.90;;;;;;5093559;28;20208;-59
2023/05/28 04:30:53;;;;;;;6.20;2.55;;;13.50;99.90;;;;;;5092977;28;20176;-59
2023/05/28 04:33:20;;;;;;;7.22;2.70;;;13.50;99.90;;;;;;5075218;28;20184;-59
2023/05/28 04:35:46;;;;;;;6.63;2.72;;;13.60;99.90;;;;;;5093682;28;20175;-59
2023/05/28 04:38:12;;;;;;;5.72;2.40;;;13.60;99.90;;;;;;5082874;28;20177;-59
2023/05/28 04:40:38;;;;;;;5.68;2.55;;;13.70;99.90;;;;;;5073272;28;20173;-60
2023/05/28 04:43:03;;;;;;;3.88;2.17;;;13.70;99.90;;;;;;5086134;28;20204;-59
2023/05/28 04:45:29;;;;;;;4.50;2.45;;;13.80;99.90;;;;;;5092996;28;20629;-60
2023/05/28 04:47:55;;;;;;;7.43;2.92;;;13.80;99.90;;;;;;5092949;28;20224;-59
2023/05/28 04:50:22;;;;;;;7.15;2.65;;;13.80;99.90;;;;;;5093272;28;20261;-59
2023/05/28 04:52:47;;;;;;;6.00;2.70;;;13.80;99.90;;;;;;5093132;28;20160;-59
2023/05/28 04:55:14;;;;;;;6.75;2.55;;;14.00;99.90;;;;;;5074939;28;20187;-59
2023/05/28 04:57:39;;;;;;;5.20;2.60;;;13.80;99.90;;;;;;5093188;28;20168;-59
2023/05/28 05:00:12;;;;;;;5.03;2.53;;;14.00;99.90;;;;;;5093121;28;20509;-59
2023/05/28 05:02:38;;;;;;;3.75;2.30;;;14.00;99.90;;;;;;5092631;28;20235;-59
2023/05/28 05:05:04;;;;;;;7.82;2.75;;;14.00;99.90;;;;;;5092702;28;20214;-59
2023/05/28 05:07:30;;;;;;;7.53;2.72;;;14.00;99.90;;;;;;5093026;28;20168;-59
2023/05/28 05:09:56;;;;;;;8.63;2.78;;;13.90;99.90;;;;;;5085520;28;20246;-60
2023/05/28 05:12:22;;;;;;;7.93;2.72;;;14.00;99.90;;;;;;5087358;28;20224;-60
2023/05/28 05:14:48;;;;;;;6.22;2.55;;;;;;;;;;5092492;28;20207;-60
2023/05/28 05:17:13;;;;;;;8.48;2.80;;;14.00;99.90;;;;;;5092595;28;20632;-60
2023/05/28 05:19:39;;;;;;;7.75;2.65;;;13.80;99.90;;;;;;5086749;28;20191;-60
2023/05/28 05:22:04;;;;;;;6.63;2.50;;;14.00;99.90;;;;;;5092877;28;20172;-60
2023/05/28 05:24:30;;;;;;;5.65;2.63;;;14.00;99.90;;;;;;5091718;28;20627;-60
2023/05/28 05:26:56;;;;;;;6.63;2.70;;;14.10;99.90;;;;;;5091884;28;20172;-60
2023/05/28 05:29:21;;;;;;;10.15;3.35;;;14.10;99.90;;;;;;5092675;28;20172;-60
2023/05/28 05:31:47;;;;;;;6.35;2.60;;;14.10;99.90;;;;;;5092512;28;20167;-60
2023/05/28 05:34:12;;;;;;;5.15;2.75;;;14.00;99.90;;;;;;5092458;28;20191;-60
2023/05/28 05:36:38;;;;;;;6.10;2.78;;;14.10;99.90;;;;;;5092395;28;20164;-60
2023/05/28 05:39:04;;;;;;;6.25;3.13;;;14.20;99.90;;;;;;5092291;28;20667;-60
2023/05/28 05:41:29;;;;;;;8.00;2.80;;;14.20;99.90;;;;;;5092273;28;20183;-60
2023/05/28 05:43:55;;;;;;;10.57;3.50;;;14.30;99.90;;;;;;5092283;28;20212;-61
2023/05/28 05:46:21;;;;;;;7.82;2.88;;;14.30;99.90;;;;;;5092055;28;20219;-60
2023/05/28 05:48:47;;;;;;;6.53;2.97;;;;;;;;;;5092174;28;20271;-61
2023/05/28 05:51:16;;;;;;;9.93;3.08;;;14.40;99.90;;;;;;5092128;28;20168;-61
2023/05/28 05:53:42;;;;;;;4.55;2.58;;;14.40;99.90;;;;;;5092071;28;20200;-60
2023/05/28 05:56:08;;;;;;;6.13;2.85;;;14.40;99.90;;;;;;5091127;28;20200;-61
2023/05/28 05:58:34;;;;;;;5.40;3.05;;;14.50;99.90;;;;;;5073794;28;20175;-61
2023/05/28 06:01:00;;;;;;;6.50;2.95;;;14.60;99.90;;;;;;5092089;28;20183;-60
2023/05/28 06:03:27;;;;;;;5.85;2.65;;;14.50;99.90;;;;;;5091859;28;20211;-60
2023/05/28 06:05:53;;;;;;;5.85;2.95;;;14.60;99.90;;;;;;5091791;28;20160;-60
2023/05/28 06:08:19;;;;;;;8.50;3.30;;;14.70;99.90;;;;;;5091656;28;20308;-61
2023/05/28 06:10:47;;;;;;;6.28;2.85;;;14.70;99.90;;;;;;5091639;28;20628;-60
2023/05/28 06:13:13;;;;;;;5.65;2.80;;;14.70;99.90;;;;;;5073450;28;20238;-60
2023/05/28 06:15:40;;;;;;;6.60;2.55;;;14.80;99.90;;;;;;5073540;28;20720;-60
2023/05/28 06:18:05;;;;;;;8.18;3.63;;;14.80;99.90;;;;;;5090552;28;20195;-60
2023/05/28 06:20:31;;;;;;;12.73;3.67;;;14.80;99.90;;;;;;5071104;28;20164;-61
2023/05/28 06:22:57;;;;;;;6.47;2.80;;;14.90;99.90;;;;;;5071076;28;20204;-63
2023/05/28 06:25:22;;;;;;;8.90;3.42;;;14.90;99.90;;;;;;5087029;28;20491;-64
2023/05/28 06:27:49;;;;;;;9.88;3.33;;;14.90;99.90;;;;;;5087414;28;20175;-63
2023/05/28 06:30:15;;;;;;;7.20;2.95;;;14.90;99.90;;;;;;5089910;28;20303;-63
2023/05/28 06:32:41;;;;;;;6.45;2.88;;;15.00;99.90;;;;;;5078691;28;20259;-60
2023/05/28 06:35:10;;;;;;;5.10;2.70;;;15.00;99.90;;;;;;5083663;28;20176;-60
2023/05/28 06:37:36;;;;;;;9.85;3.30;;;15.10;99.90;;;;;;5090971;28;20164;-60
2023/05/28 06:40:06;;;;;;;7.20;3.17;;;15.00;99.90;;;;;;5090935;28;20183;-60
2023/05/28 06:42:31;;;;;;;9.20;3.35;;;15.10;99.90;;;;;;5089985;28;20202;-60
2023/05/28 06:44:59;;;;;;;6.47;3.35;;;15.10;99.90;;;;;;5083435;28;20187;-60
2023/05/28 06:47:24;;;;;;;6.82;2.95;;;15.20;99.90;;;;;;5090358;28;20695;-59
2023/05/28 06:49:51;;;;;;;7.32;3.15;;;15.30;99.90;;;;;;5072754;28;20293;-60
2023/05/28 06:52:16;;;;;;;9.63;3.83;;;15.30;99.90;;;;;;5090795;28;20192;-60
2023/05/28 06:54:42;;;;;;;6.70;3.55;;;15.40;99.90;;;;;;5091155;28;20207;-60
2023/05/28 06:57:08;;;;;;;8.88;3.10;;;15.40;99.90;;;;;;5091133;28;20181;-60
2023/05/28 06:59:33;;;;;;;7.93;3.63;;;15.50;99.90;;;;;;5091291;28;20175;-60
2023/05/28 07:01:59;;;;;;;8.32;3.28;;;15.60;99.90;;;;;;5091077;28;20640;-61
2023/05/28 07:04:24;;;;;;;8.27;3.22;;;15.60;99.90;;;;;;5090026;28;20218;-59
2023/05/28 07:06:50;;;;;;;7.00;3.13;;;15.70;99.90;;;;;;5090605;28;20270;-59
2023/05/28 07:09:15;;;;;;;7.18;3.15;;;15.60;99.90;;;;;;5091045;28;20190;-59
2023/05/28 07:11:41;;;;;;;6.20;3.15;;;15.80;99.90;;;;;;5090906;28;20628;-59
2023/05/28 07:14:07;;;;;;;6.88;3.42;;;15.80;99.90;;;;;;5089055;28;20221;-60
2023/05/28 07:16:32;;;;;;;9.65;3.63;;;15.80;99.90;;;;;;5073756;28;20680;-60
2023/05/28 07:18:58;;;;;;;10.35;3.78;;;15.90;99.90;;;;;;5090784;28;20171;-60
2023/05/28 07:21:23;;;;;;;6.65;3.08;;;16.00;99.90;;;;;;5090651;28;20176;-60
2023/05/28 07:23:49;;;;;;;8.98;3.30;;;16.30;99.90;;;;;;5090657;28;20242;-60
2023/05/28 07:26:15;;;;;;;5.57;3.35;;;16.30;99.90;;;;;;5088570;28;20562;-60
2023/05/28 07:28:40;;;;;;;8.38;3.42;;;16.40;99.90;;;;;;5090533;28;20262;-59
2023/05/28 07:31:06;;;;;;;6.40;3.50;;;;;;;;;;5090719;28;20649;-60
2023/05/28 07:33:32;;;;;;;5.43;3.25;;;16.40;99.90;;;;;;5090616;28;20164;-60
2023/05/28 07:35:57;;;;;;;7.35;3.25;;;16.60;99.90;;;;;;5088424;28;20560;-60
2023/05/28 07:38:23;;;;;;;7.30;3.67;;;16.70;99.90;;;;;;5090737;28;20182;-59
2023/05/28 07:40:50;;;;;;;10.50;3.67;;;16.70;99.90;;;;;;5090613;28;20206;-65
2023/05/28 07:43:15;;;;;;;8.20;3.80;;;16.80;99.90;;;;;;5090652;28;20207;-59
2023/05/28 07:45:41;;;;;;;7.70;3.85;;;16.90;99.90;;;;;;5090301;28;20516;-58
2023/05/28 07:48:06;;;;;;;8.38;3.67;;;16.90;99.90;;;;;;5090292;28;20220;-59
2023/05/28 07:50:32;;;;;;;6.35;3.05;;;17.00;99.90;;;;;;5072305;28;20542;-59
2023/05/28 07:52:58;;;;;;;7.43;3.60;;;16.90;99.90;;;;;;5090404;28;20172;-59
2023/05/28 07:55:24;;;;;;;9.07;3.92;;;16.90;99.90;;;;;;5090158;28;20175;-59
2023/05/28 07:57:49;;;;;;;7.00;3.28;;;17.10;99.90;;;;;;5089804;28;20195;-60
2023/05/28 08:00:18;;;;;;;10.93;4.03;;;17.10;99.90;;;;;;5090159;28;20184;-60
2023/05/28 08:02:45;;;;;;;5.97;3.40;;;17.30;99.90;;;;;;5090250;28;20655;-59
2023/05/28 08:05:11;;;;;;;11.93;4.43;;;17.40;99.90;;;;;;5089894;28;20659;-59
2023/05/28 08:07:36;;;;;;;9.48;3.90;;;17.20;99.90;;;;;;5090163;28;20168;-60
2023/05/28 08:10:04;;;;;;;7.57;3.35;;;17.40;99.90;;;;;;5090374;28;20171;-59
2023/05/28 08:12:30;;;;;;;12.25;4.22;;;17.40;99.90;;;;;;5090062;28;20241;-58
2023/05/28 08:14:55;;;;;;;7.47;3.90;;;17.60;99.90;;;;;;5089605;28;20180;-57
2023/05/28 08:17:22;;;;;;;9.80;4.07;;;17.60;99.90;;;;;;5090130;28;20270;-58
2023/05/28 08:19:48;;;;;;;7.75;3.90;;;17.70;99.90;;;;;;5085259;28;20182;-58
2023/05/28 08:22:14;;;;;;;8.82;3.75;;;17.80;99.90;;;;;;5093982;28;20616;-58
2023/05/28 08:24:40;;;;;;;9.55;3.90;;;18.00;99.90;;;;;;5093291;28;20215;-58
2023/05/28 08:27:06;;;;;;;10.30;4.22;;;18.10;99.90;;;;;;5092681;28;20283;-59
2023/05/28 08:29:31;;;;;;;10.25;4.40;;;18.30;99.90;;;;;;5093859;28;20168;-58
2023/05/28 08:31:58;;;;;;;7.25;3.67;;;18.50;99.90;;;;;;5094297;28;20209;-58
2023/05/28 08:34:24;;;;;;;6.70;3.80;;;18.60;99.90;;;;;;5093462;28;20172;-58
2023/05/28 08:36:50;;;;;;;8.55;3.72;;;18.80;99.90;;;;;;5093322;28;20605;-61
2023/05/28 08:39:16;;;;;;;9.18;3.88;;;18.90;99.90;;;;;;5093633;28;20716;-59
2023/05/28 08:41:43;;;;;;;9.65;4.50;;;19.20;99.90;;;;;;5093468;28;20171;-59
2023/05/28 08:44:09;;;;;;;11.65;4.32;;;19.60;99.90;;;;;;5093445;28;20687;-59
2023/05/28 08:46:36;;;;;;;9.73;3.95;;;20.00;99.90;;;;;;5091561;28;20219;-59
2023/05/28 08:49:03;;;;;;;8.35;3.67;;;20.20;99.90;;;;;;5093384;28;20172;-62
2023/05/28 08:51:32;;;;;;;6.25;3.58;;;20.60;99.90;;;;;;5093544;28;20538;-62
2023/05/28 08:54:00;;;;;;;9.18;3.72;;;21.00;99.90;;;;;;5092831;28;20232;-59
2023/05/28 08:56:26;;;;;;;9.73;3.67;;;21.00;99.90;;;;;;5090604;28;20214;-59
2023/05/28 08:58:52;;;;;;;12.40;4.00;;;21.20;99.90;;;;;;5093087;28;20643;-60
2023/05/28 09:01:17;;;;;;;7.90;3.97;;;21.60;99.90;;;;;;5093579;28;20259;-61
2023/05/28 09:03:44;;;;;;;8.63;4.03;;;21.50;99.90;;;;;;5078753;28;20677;-60
2023/05/28 09:06:09;;;;;;;9.20;4.55;;;21.90;99.90;;;;;;5091157;28;20211;-60
2023/05/28 09:08:36;;;;;;;7.03;3.42;;;21.90;99.90;;;;;;5092845;28;20206;-60
2023/05/28 09:11:13;;;;;;;6.88;3.53;;;22.00;99.90;;;;;;5092814;28;20172;-60
2023/05/28 09:13:46;;;;;;;8.70;3.80;;;22.50;99.90;;;;;;5093460;28;20174;-60
2023/05/28 09:16:22;;;;;;;7.70;3.25;;;22.80;99.90;;;;;;5082771;28;20171;-60
2023/05/28 09:19:02;;;;;;;10.05;3.63;;;22.70;99.90;;;;;;5092427;28;20175;-60
2023/05/28 09:21:28;;;;;;;8.15;3.60;;;22.80;99.90;;;;;;5092725;28;20195;-60
2023/05/28 09:23:53;;;;;;;9.02;4.07;;;23.00;99.90;;;;;;5092797;28;20722;-60
2023/05/28 09:26:22;;;;;;;7.43;3.65;;;22.50;99.90;;;;;;5092717;28;20539;-60
2023/05/28 09:28:52;;;;;;;7.90;3.40;;;22.50;99.90;;;;;;5092697;28;20695;-60
2023/05/28 09:31:18;;;;;;;11.52;4.20;;;22.40;99.90;;;;;;5061421;28;20221;-60
2023/05/28 09:33:47;;;;;;;10.25;3.97;;;23.00;99.90;;;;;;5092671;28;20172;-60
2023/05/28 09:36:16;;;;;;;8.95;3.90;;;23.00;99.90;;;;;;5092572;28;20186;-60
2023/05/28 09:38:42;;;;;;;8.80;3.58;;;22.80;99.90;;;;;;5092481;28;20180;-60
2023/05/28 09:41:22;;;;;;;10.32;3.80;;;23.30;99.90;;;;;;5092471;28;20171;-60
2023/05/28 09:44:04;;;;;;;11.18;4.22;;;23.50;99.90;;;;;;5092283;28;20218;-60
2023/05/28 09:46:32;;;;;;;7.90;3.40;;;23.50;99.90;;;;;;5092262;28;20702;-60
2023/05/28 09:48:58;;;;;;;9.90;4.05;;;23.00;99.90;;;;;;5092260;28;20183;-60
2023/05/28 09:51:26;;;;;;;12.25;3.78;;;23.20;99.90;;;;;;5092042;28;20187;-60
2023/05/28 09:54:00;;;;;;;8.57;3.33;;;23.60;99.90;;;;;;5092461;28;20261;-60
2023/05/28 09:56:30;;;;;;;11.77;4.05;;;24.10;99.90;;;;;;5092181;28;20175;-60
2023/05/28 09:59:02;;;;;;;10.50;4.00;;;24.30;99.90;;;;;;5091757;28;20207;-60
2023/05/28 10:01:38;;;;;;;8.93;3.95;;;24.40;99.90;;;;;;5092173;28;20317;-60
2023/05/28 10:04:08;;;;;;;9.93;4.07;;;24.00;99.90;;;;;;5091815;28;20694;-60
2023/05/28 10:06:37;;;;;;;6.25;3.58;;;24.10;99.90;;;;;;5091905;28;20694;-60
2023/05/28 10:09:04;;;;;;;7.15;3.70;;;24.30;99.90;;;;;;5091752;28;20180;-60
2023/05/28 10:11:35;;;;;;;8.20;4.28;;;24.10;99.90;;;;;;5091688;28;20175;-60
2023/05/28 10:14:03;;;;;;;7.93;3.80;;;24.90;99.90;;;;;;5091486;28;20254;-60
2023/05/28 10:16:30;;;;;;;8.40;3.55;;;25.50;99.90;;;;;;5091526;28;20175;-60
2023/05/28 10:18:56;;;;;;;8.20;3.50;;;25.70;99.90;;;;;;5091604;28;20176;-60
2023/05/28 10:21:22;;;;;;;8.38;3.50;;;;;;;;;;5091661;28;20176;-60
2023/05/28 10:23:48;;;;;;;7.78;3.40;;;25.30;99.90;;;;;;5091157;28;20207;-60
2023/05/28 10:26:15;;;;;;;9.15;4.13;;;25.60;99.90;;;;;;5091421;28;20168;-60
2023/05/28 10:28:42;;;;;;;7.13;3.58;;;25.50;99.90;;;;;;5086821;28;20271;-60
2023/05/28 10:31:10;;;;;;;11.25;3.50;;;25.60;99.90;;;;;;5091302;28;20176;-60
2023/05/28 10:33:41;;;;;;;9.98;4.05;;;25.20;99.90;;;;;;5090663;28;20654;-60
2023/05/28 10:36:12;;;;;;;8.80;3.90;;;25.40;99.90;;;;;;5080228;28;20656;-60
2023/05/28 10:39:00;;;;;;;8.52;3.80;;;25.70;99.90;;;;;;5090498;28;20275;-60
2023/05/28 10:41:32;;;;;;;8.40;3.58;;;25.40;99.90;;;;;;5091092;28;20168;-60
2023/05/28 10:44:05;;;;;;;11.38;4.20;;;25.90;99.90;;;;;;5091491;28;20250;-61
2023/05/28 10:46:38;;;;;;;6.43;3.33;;;25.80;99.90;;;;;;5091274;28;20298;-61
2023/05/28 10:49:15;;;;;;;8.40;3.88;;;26.40;99.90;;;;;;5089661;28;20218;-61
2023/05/28 10:51:54;;;;;;;8.95;3.97;;;26.10;99.90;;;;;;5091394;28;20715;-61
2023/05/28 10:54:28;;;;;;;8.07;3.53;;;25.90;99.90;;;;;;5091145;28;20172;-62
2023/05/28 10:57:14;;;;;;;9.00;3.70;;;26.40;99.90;;;;;;5091221;28;20175;-62
2023/05/28 10:59:45;;;;;;;6.38;3.50;;;26.40;99.90;;;;;;5090900;28;20168;-61
2023/05/28 11:02:11;;;;;;;8.43;3.80;;;26.30;99.90;;;;;;5089872;28;20229;-61
2023/05/28 11:04:39;;;;;;;11.15;3.47;;;26.40;99.90;;;;;;5085460;28;20207;-60
2023/05/28 11:07:05;;;;;;;8.68;3.45;;;26.10;99.90;;;;;;5090714;28;20251;-60
2023/05/28 11:09:32;;;;;;;9.25;3.65;;;26.10;99.90;;;;;;5091022;28;20636;-60
2023/05/28 11:12:01;;;;;;;8.25;4.05;;;26.40;99.90;;;;;;5091111;28;20262;-61
2023/05/28 11:14:35;;;;;;;7.15;3.70;;;26.10;99.90;;;;;;5088831;28;20250;-60
2023/05/28 11:17:01;;;;;;;9.48;4.05;;;26.10;99.90;;;;;;5091077;28;20172;-60
2023/05/28 11:19:27;;;;;;;13.07;4.38;;;26.30;99.90;;;;;;5090470;28;20656;-60
2023/05/28 11:21:55;;;;;;;9.68;4.32;;;26.50;99.90;;;;;;5090795;28;20219;-60
2023/05/28 11:24:21;;;;;;;8.63;3.50;;;26.90;99.90;;;;;;5090343;28;20219;-61
2023/05/28 11:26:46;;;;;;;11.18;3.88;;;27.40;99.90;;;;;;5090833;28;20168;-60
2023/05/28 11:29:13;;;;;;;7.93;3.85;;;27.40;99.90;;;;;;5090821;28;20175;-60
2023/05/28 11:31:40;;;;;;;8.10;3.78;;;27.30;99.90;;;;;;5084337;28;20247;-60
2023/05/28 11:34:07;;;;;;;8.13;3.85;;;27.20;99.90;;;;;;5070464;28;20176;-60
2023/05/28 11:36:43;;;;;;;6.70;3.40;;;27.10;99.90;;;;;;5070530;28;20179;-59
2023/05/28 11:39:09;;;;;;;7.55;3.42;;;28.00;99.90;;;;;;5070527;28;20778;-59
2023/05/28 11:41:34;;;;;;;7.80;3.65;;;28.20;98.60;;;;;;5070481;28;20263;-60
2023/05/28 11:44:00;;;;;;;6.78;3.70;;;28.60;94.10;;;;;;5070273;28;20208;-60
2023/05/28 11:46:25;;;;;;;10.35;4.00;;;28.20;94.40;;;;;;5070482;28;20215;-60
2023/05/28 11:48:51;;;;;;;8.63;4.07;;;27.70;97.50;;;;;;5070342;28;20690;-60
2023/05/28 11:51:20;;;;;;;7.53;3.50;;;27.90;94.60;;;;;;5070357;28;20180;-60
2023/05/28 11:53:46;;;;;;;9.70;3.40;;;28.10;93.60;;;;;;5070575;28;20559;-60
2023/05/28 11:56:12;;;;;;;10.13;3.70;;;28.30;94.70;;;;;;5074161;28;20259;-60
2023/05/28 11:58:43;;;;;;;9.70;3.50;;;28.30;91.70;;;;;;5074607;28;20649;-61
2023/05/28 12:01:15;;;;;;;7.43;3.38;;;28.60;86.90;;;;;;5074036;28;20484;-60
2023/05/28 12:03:41;;;;;;;7.88;3.67;;;28.80;81.30;;;;;;5074076;28;20212;-60
2023/05/28 12:06:07;;;;;;;11.45;3.88;;;28.40;77.00;;;;;;5074005;28;20191;-60
2023/05/28 12:08:33;;;;;;;9.32;3.80;;;28.70;76.70;;;;;;5083378;28;20176;-60
2023/05/28 12:11:02;;;;;;;11.88;4.10;;;29.10;63.80;;;;;;5094176;28;20246;-60
2023/05/28 12:13:35;;;;;;;8.13;3.72;;;29.30;70.30;;;;;;5094094;28;20180;-61
2023/05/28 12:16:11;;;;;;;8.35;3.88;;;29.40;41.90;;;;;;5094486;28;20176;-61
2023/05/28 12:18:43;;;;;;;8.15;3.47;;;29.30;55.80;;;;;;5093889;28;20571;-60
2023/05/28 12:21:20;;;;;;;10.77;3.45;;;29.50;46.20;;;;;;5093943;28;20176;-64
2023/05/28 12:23:46;;;;;;;9.80;3.47;;;29.00;48.40;;;;;;5093784;28;20208;-60
2023/05/28 12:26:14;;;;;;;10.02;3.72;;;29.20;42.90;;;;;;5093826;28;20250;-60
2023/05/28 12:28:41;;;;;;;7.55;3.53;;;28.80;51.70;;;;;;5093710;28;20171;-60
2023/05/28 12:31:07;;;;;;;6.38;3.80;;;28.20;52.20;;;;;;5093764;28;20164;-60
2023/05/28 12:33:33;;;;;;;6.60;4.03;;;28.20;59.70;;;;;;5093901;28;20242;-60
2023/05/28 12:35:59;;;;;;;9.00;3.90;;;;;;;;;;5093780;28;20683;-60
2023/05/28 12:38:26;;;;;;;10.63;3.65;;;27.30;87.30;;;;;;5093719;28;20655;-60
2023/05/28 12:40:52;;;;;;;9.00;3.70;;;27.40;94.50;;;;;;5093526;28;20176;-60
2023/05/28 12:43:17;;;;;;;9.30;3.80;;;27.10;91.60;;;;;;5075243;28;20196;-61
2023/05/28 12:45:43;;;;;;;10.45;3.70;;;26.50;83.10;;;;;;5093502;28;20233;-61
2023/05/28 12:48:09;;;;;;;8.38;3.85;;;26.80;98.40;;;;;;5093402;28;20250;-61